sensor_id;sensor_type;location;lat;lon;timestamp;temperature;humidity
22081;DHT22;11207;59.512;18.050;2022-08-11T00:00:39;18.50;99.90
22081;DHT22;11207;59.512;18.050;2022-08-11T00:03:10;18.50;99.90
22081;DHT22;11207;59.512;18.050;2022-08-11T00:05:55;18.50;99.90
22081;DHT22;11207;59.512;18.050;2022-08-11T00:08:27;18.50;99.90
22081;DHT22;11207;59.512;18.050;2022-08-11T00:11:08;18.40;99.90
22081;DHT22;11207;59.512;18.050;2022-08-11T00:13:36;18.40;99.90
22081;DHT22;11207;59.512;18.050;2022-08-11T00:16:09;18.40;99.90
22081;DHT22;11207;59.512;18.050;2022-08-11T00:18:41;18.30;99.90
22081;DHT22;11207;59.512;18.050;2022-08-11T00:21:09;18.30;99.90
22081;DHT22;11207;59.512;18.050;2022-08-11T00:23:44;18.30;99.90
22081;DHT22;11207;59.512;18.050;2022-08-11T00:26:13;18.30;99.90
22081;DHT22;11207;59.512;18.050;2022-08-11T00:28:40;18.30;99.90
22081;DHT22;11207;59.512;18.050;2022-08-11T00:31:08;18.30;99.90
22081;DHT22;11207;59.512;18.050;2022-08-11T00:33:40;18.20;99.90
22081;DHT22;11207;59.512;18.050;2022-08-11T00:36:09;18.20;99.90
22081;DHT22;11207;59.512;18.050;2022-08-11T00:38:38;18.10;99.90
22081;DHT22;11207;59.512;18.050;2022-08-11T01:31:17;17.60;99.90
22081;DHT22;11207;59.512;18.050;2022-08-11T01:37:01;17.60;99.90
22081;DHT22;11207;59.512;18.050;2022-08-11T01:42:54;17.60;99.90
22081;DHT22;11207;59.512;18.050;2022-08-11T02:02:09;17.50;99.90
22081;DHT22;11207;59.512;18.050;2022-08-11T02:05:01;17.50;99.90
22081;DHT22;11207;59.512;18.050;2022-08-11T02:14:09;17.40;99.90
22081;DHT22;11207;59.512;18.050;2022-08-11T02:16:47;17.40;99.90
22081;DHT22;11207;59.512;18.050;2022-08-11T02:19:42;17.30;99.90
22081;DHT22;11207;59.512;18.050;2022-08-11T02:28:31;17.20;99.90
22081;DHT22;11207;59.512;18.050;2022-08-11T02:31:16;17.10;99.90
22081;DHT22;11207;59.512;18.050;2022-08-11T02:34:37;17.10;99.90
22081;DHT22;11207;59.512;18.050;2022-08-11T02:42:41;16.90;99.90
22081;DHT22;11207;59.512;18.050;2022-08-11T02:51:19;16.80;99.90
22081;DHT22;11207;59.512;18.050;2022-08-11T02:59:44;16.80;99.90
22081;DHT22;11207;59.512;18.050;2022-08-11T03:07:22;16.90;99.90
22081;DHT22;11207;59.512;18.050;2022-08-11T03:09:57;16.90;99.90
22081;DHT22;11207;59.512;18.050;2022-08-11T03:12:32;16.90;99.90
22081;DHT22;11207;59.512;18.050;2022-08-11T03:15:27;16.90;99.90
22081;DHT22;11207;59.512;18.050;2022-08-11T03:18:37;16.90;99.90
22081;DHT22;11207;59.512;18.050;2022-08-11T03:23:40;17.00;99.90
22081;DHT22;11207;59.512;18.050;2022-08-11T03:29:26;17.00;99.90
22081;DHT22;11207;59.512;18.050;2022-08-11T03:32:04;17.10;99.90
22081;DHT22;11207;59.512;18.050;2022-08-11T03:34:32;17.00;99.90
22081;DHT22;11207;59.512;18.050;2022-08-11T03:37:55;17.10;99.90
22081;DHT22;11207;59.512;18.050;2022-08-11T03:46:21;17.10;99.90
22081;DHT22;11207;59.512;18.050;2022-08-11T03:49:29;17.10;99.90
22081;DHT22;11207;59.512;18.050;2022-08-11T03:52:12;17.20;99.90
22081;DHT22;11207;59.512;18.050;2022-08-11T04:00:10;17.10;99.90
22081;DHT22;11207;59.512;18.050;2022-08-11T04:20:28;17.20;99.90
22081;DHT22;11207;59.512;18.050;2022-08-11T04:23:38;17.30;99.90
22081;DHT22;11207;59.512;18.050;2022-08-11T04:31:41;17.30;99.90
22081;DHT22;11207;59.512;18.050;2022-08-11T04:40:06;17.30;99.90
22081;DHT22;11207;59.512;18.050;2022-08-11T05:07:46;17.60;99.90
22081;DHT22;11207;59.512;18.050;2022-08-11T05:13:06;17.70;99.90
22081;DHT22;11207;59.512;18.050;2022-08-11T05:15:53;17.80;99.90
22081;DHT22;11207;59.512;18.050;2022-08-11T05:18:49;17.90;99.90
22081;DHT22;11207;59.512;18.050;2022-08-11T05:21:35;18.00;99.90
22081;DHT22;11207;59.512;18.050;2022-08-11T05:24:33;18.00;99.90
22081;DHT22;11207;59.512;18.050;2022-08-11T05:27:23;18.20;99.90
22081;DHT22;11207;59.512;18.050;2022-08-11T05:30:10;18.30;99.90
22081;DHT22;11207;59.512;18.050;2022-08-11T05:33:08;18.30;99.90
22081;DHT22;11207;59.512;18.050;2022-08-11T05:36:01;18.40;99.90
22081;DHT22;11207;59.512;18.050;2022-08-11T05:38:33;18.40;99.90
22081;DHT22;11207;59.512;18.050;2022-08-11T05:41:23;18.30;99.90
22081;DHT22;11207;59.512;18.050;2022-08-11T05:44:09;18.40;99.90
22081;DHT22;11207;59.512;18.050;2022-08-11T05:46:55;18.50;99.90
22081;DHT22;11207;59.512;18.050;2022-08-11T05:49:40;18.50;99.90
22081;DHT22;11207;59.512;18.050;2022-08-11T05:52:27;18.50;99.90
22081;DHT22;11207;59.512;18.050;2022-08-11T05:55:13;18.60;99.90
22081;DHT22;11207;59.512;18.050;2022-08-11T05:58:03;18.60;99.90
22081;DHT22;11207;59.512;18.050;2022-08-11T06:00:30;18.70;99.90
22081;DHT22;11207;59.512;18.050;2022-08-11T06:03:00;18.70;99.90
22081;DHT22;11207;59.512;18.050;2022-08-11T06:05:36;18.80;99.90
22081;DHT22;11207;59.512;18.050;2022-08-11T06:08:04;18.80;99.90
22081;DHT22;11207;59.512;18.050;2022-08-11T06:10:36;19.00;99.90
22081;DHT22;11207;59.512;18.050;2022-08-11T06:13:04;19.00;99.90
22081;DHT22;11207;59.512;18.050;2022-08-11T06:15:33;19.20;99.90
22081;DHT22;11207;59.512;18.050;2022-08-11T06:18:09;19.30;99.90
22081;DHT22;11207;59.512;18.050;2022-08-11T06:20:49;19.40;99.90
22081;DHT22;11207;59.512;18.050;2022-08-11T06:23:16;19.50;99.90
22081;DHT22;11207;59.512;18.050;2022-08-11T06:25:44;19.70;99.90
22081;DHT22;11207;59.512;18.050;2022-08-11T06:28:11;19.80;99.90
22081;DHT22;11207;59.512;18.050;2022-08-11T06:30:40;19.80;99.90
22081;DHT22;11207;59.512;18.050;2022-08-11T06:33:28;19.90;99.90
22081;DHT22;11207;59.512;18.050;2022-08-11T06:41:51;20.10;99.90
22081;DHT22;11207;59.512;18.050;2022-08-11T06:44:30;20.10;99.90
22081;DHT22;11207;59.512;18.050;2022-08-11T06:47:06;20.10;99.90
22081;DHT22;11207;59.512;18.050;2022-08-11T06:49:41;20.30;99.90
22081;DHT22;11207;59.512;18.050;2022-08-11T06:52:35;20.30;99.90
22081;DHT22;11207;59.512;18.050;2022-08-11T06:55:07;20.40;99.90
22081;DHT22;11207;59.512;18.050;2022-08-11T06:57:36;20.50;99.90
22081;DHT22;11207;59.512;18.050;2022-08-11T07:00:23;20.60;99.90
22081;DHT22;11207;59.512;18.050;2022-08-11T07:03:14;20.60;99.90
22081;DHT22;11207;59.512;18.050;2022-08-11T07:05:52;20.70;99.90
22081;DHT22;11207;59.512;18.050;2022-08-11T07:11:45;20.90;99.90
22081;DHT22;11207;59.512;18.050;2022-08-11T07:14:21;20.90;99.90
22081;DHT22;11207;59.512;18.050;2022-08-11T07:17:11;21.00;99.90
22081;DHT22;11207;59.512;18.050;2022-08-11T07:19:39;21.00;99.90
22081;DHT22;11207;59.512;18.050;2022-08-11T07:22:34;21.10;99.90
22081;DHT22;11207;59.512;18.050;2022-08-11T07:25:21;21.20;99.90
22081;DHT22;11207;59.512;18.050;2022-08-11T07:28:11;21.20;99.90
22081;DHT22;11207;59.512;18.050;2022-08-11T07:31:02;21.30;99.90
22081;DHT22;11207;59.512;18.050;2022-08-11T07:33:44;21.30;99.90
22081;DHT22;11207;59.512;18.050;2022-08-11T07:36:11;21.40;99.90
22081;DHT22;11207;59.512;18.050;2022-08-11T07:38:44;21.50;99.90
22081;DHT22;11207;59.512;18.050;2022-08-11T07:41:17;21.60;99.90
22081;DHT22;11207;59.512;18.050;2022-08-11T07:43:45;21.70;99.90
22081;DHT22;11207;59.512;18.050;2022-08-11T07:46:16;21.70;99.90
22081;DHT22;11207;59.512;18.050;2022-08-11T07:49:03;21.90;99.90
22081;DHT22;11207;59.512;18.050;2022-08-11T07:51:48;22.00;99.90
22081;DHT22;11207;59.512;18.050;2022-08-11T07:54:33;22.10;99.90
22081;DHT22;11207;59.512;18.050;2022-08-11T07:57:00;22.20;99.90
22081;DHT22;11207;59.512;18.050;2022-08-11T07:59:46;22.40;99.90
22081;DHT22;11207;59.512;18.050;2022-08-11T08:02:30;22.60;99.90
22081;DHT22;11207;59.512;18.050;2022-08-11T08:05:16;22.70;99.90
22081;DHT22;11207;59.512;18.050;2022-08-11T08:08:02;22.90;99.90
22081;DHT22;11207;59.512;18.050;2022-08-11T08:10:47;23.10;99.90
22081;DHT22;11207;59.512;18.050;2022-08-11T08:13:33;23.10;99.90
22081;DHT22;11207;59.512;18.050;2022-08-11T08:16:19;23.20;99.90
22081;DHT22;11207;59.512;18.050;2022-08-11T08:19:04;23.30;99.90
22081;DHT22;11207;59.512;18.050;2022-08-11T08:21:30;23.30;99.90
22081;DHT22;11207;59.512;18.050;2022-08-11T08:23:59;23.30;99.90
22081;DHT22;11207;59.512;18.050;2022-08-11T08:26:25;23.30;99.90
22081;DHT22;11207;59.512;18.050;2022-08-11T08:29:10;23.60;99.90
22081;DHT22;11207;59.512;18.050;2022-08-11T08:31:55;23.70;99.90
22081;DHT22;11207;59.512;18.050;2022-08-11T08:34:22;23.80;99.90
22081;DHT22;11207;59.512;18.050;2022-08-11T08:36:49;23.90;99.90
22081;DHT22;11207;59.512;18.050;2022-08-11T08:39:22;24.00;99.90
22081;DHT22;11207;59.512;18.050;2022-08-11T08:41:58;24.00;99.90
22081;DHT22;11207;59.512;18.050;2022-08-11T08:44:25;24.10;99.90
22081;DHT22;11207;59.512;18.050;2022-08-11T08:46:54;24.20;99.90
22081;DHT22;11207;59.512;18.050;2022-08-11T08:49:36;24.20;99.90
22081;DHT22;11207;59.512;18.050;2022-08-11T08:52:05;24.20;99.90
22081;DHT22;11207;59.512;18.050;2022-08-11T08:54:37;24.20;99.90
22081;DHT22;11207;59.512;18.050;2022-08-11T08:57:05;24.30;99.90
22081;DHT22;11207;59.512;18.050;2022-08-11T08:59:36;24.50;99.90
22081;DHT22;11207;59.512;18.050;2022-08-11T09:02:04;24.50;99.90
22081;DHT22;11207;59.512;18.050;2022-08-11T09:04:31;24.50;99.90
22081;DHT22;11207;59.512;18.050;2022-08-11T09:07:17;24.50;99.90
22081;DHT22;11207;59.512;18.050;2022-08-11T09:09:51;24.80;99.90
22081;DHT22;11207;59.512;18.050;2022-08-11T09:12:18;24.80;99.90
22081;DHT22;11207;59.512;18.050;2022-08-11T09:14:47;24.80;99.90
22081;DHT22;11207;59.512;18.050;2022-08-11T09:20:11;25.20;99.90
22081;DHT22;11207;59.512;18.050;2022-08-11T09:22:40;25.20;99.90
22081;DHT22;11207;59.512;18.050;2022-08-11T09:25:26;25.20;99.90
22081;DHT22;11207;59.512;18.050;2022-08-11T09:28:13;25.30;99.90
22081;DHT22;11207;59.512;18.050;2022-08-11T09:30:50;25.50;99.90
22081;DHT22;11207;59.512;18.050;2022-08-11T09:33:20;25.40;99.90
22081;DHT22;11207;59.512;18.050;2022-08-11T09:35:50;25.60;99.90
22081;DHT22;11207;59.512;18.050;2022-08-11T09:38:17;25.80;99.90
22081;DHT22;11207;59.512;18.050;2022-08-11T09:41:04;25.90;99.90
22081;DHT22;11207;59.512;18.050;2022-08-11T09:43:31;25.80;98.40
22081;DHT22;11207;59.512;18.050;2022-08-11T09:46:23;25.90;99.30
22081;DHT22;11207;59.512;18.050;2022-08-11T09:48:52;26.20;99.50
22081;DHT22;11207;59.512;18.050;2022-08-11T09:51:22;26.40;99.90
22081;DHT22;11207;59.512;18.050;2022-08-11T09:53:48;26.80;99.30
22081;DHT22;11207;59.512;18.050;2022-08-11T09:56:16;26.80;96.70
22081;DHT22;11207;59.512;18.050;2022-08-11T09:59:02;27.00;98.10
22081;DHT22;11207;59.512;18.050;2022-08-11T10:01:32;27.30;97.00
22081;DHT22;11207;59.512;18.050;2022-08-11T10:04:21;27.30;97.60
22081;DHT22;11207;59.512;18.050;2022-08-11T10:06:50;27.40;96.20
22081;DHT22;11207;59.512;18.050;2022-08-11T10:09:50;27.50;96.20
22081;DHT22;11207;59.512;18.050;2022-08-11T10:12:25;27.60;94.00
22081;DHT22;11207;59.512;18.050;2022-08-11T10:15:08;27.50;94.40
22081;DHT22;11207;59.512;18.050;2022-08-11T10:17:56;27.40;94.70
22081;DHT22;11207;59.512;18.050;2022-08-11T10:20:41;27.70;95.40
22081;DHT22;11207;59.512;18.050;2022-08-11T10:23:11;27.60;93.20
22081;DHT22;11207;59.512;18.050;2022-08-11T10:25:57;27.40;92.70
22081;DHT22;11207;59.512;18.050;2022-08-11T10:28:41;27.40;93.10
22081;DHT22;11207;59.512;18.050;2022-08-11T10:31:08;27.40;93.60
22081;DHT22;11207;59.512;18.050;2022-08-11T10:33:53;27.70;91.20
22081;DHT22;11207;59.512;18.050;2022-08-11T10:38:59;27.60;92.30
22081;DHT22;11207;59.512;18.050;2022-08-11T10:41:25;27.60;91.30
22081;DHT22;11207;59.512;18.050;2022-08-11T10:44:11;27.50;90.90
22081;DHT22;11207;59.512;18.050;2022-08-11T10:46:38;27.60;92.80
22081;DHT22;11207;59.512;18.050;2022-08-11T10:49:24;27.60;91.60
22081;DHT22;11207;59.512;18.050;2022-08-11T10:51:52;27.70;91.10
22081;DHT22;11207;59.512;18.050;2022-08-11T10:54:39;27.70;91.80
22081;DHT22;11207;59.512;18.050;2022-08-11T10:57:26;27.90;91.50
22081;DHT22;11207;59.512;18.050;2022-08-11T11:00:12;27.80;90.40
22081;DHT22;11207;59.512;18.050;2022-08-11T11:02:45;27.90;87.60
22081;DHT22;11207;59.512;18.050;2022-08-11T11:05:28;27.90;90.50
22081;DHT22;11207;59.512;18.050;2022-08-11T11:08:15;28.00;89.30
22081;DHT22;11207;59.512;18.050;2022-08-11T11:11:01;27.80;88.60
22081;DHT22;11207;59.512;18.050;2022-08-11T11:13:29;28.00;89.80
22081;DHT22;11207;59.512;18.050;2022-08-11T11:16:14;28.00;87.60
22081;DHT22;11207;59.512;18.050;2022-08-11T11:19:08;28.10;90.70
22081;DHT22;11207;59.512;18.050;2022-08-11T11:21:35;28.20;90.80
22081;DHT22;11207;59.512;18.050;2022-08-11T11:24:14;28.30;88.40
22081;DHT22;11207;59.512;18.050;2022-08-11T11:27:20;28.30;86.60
22081;DHT22;11207;59.512;18.050;2022-08-11T11:30:05;28.00;90.00
22081;DHT22;11207;59.512;18.050;2022-08-11T11:35:35;28.20;85.90
22081;DHT22;11207;59.512;18.050;2022-08-11T11:38:05;28.10;89.40
22081;DHT22;11207;59.512;18.050;2022-08-11T11:40:34;28.20;84.90
22081;DHT22;11207;59.512;18.050;2022-08-11T11:43:01;28.20;86.70
22081;DHT22;11207;59.512;18.050;2022-08-11T11:45:28;28.40;88.30
22081;DHT22;11207;59.512;18.050;2022-08-11T11:47:55;28.60;89.10
22081;DHT22;11207;59.512;18.050;2022-08-11T11:50:26;28.50;86.00
22081;DHT22;11207;59.512;18.050;2022-08-11T11:52:53;28.40;86.00
22081;DHT22;11207;59.512;18.050;2022-08-11T11:55:22;28.60;90.10
22081;DHT22;11207;59.512;18.050;2022-08-11T11:57:48;28.40;85.90
22081;DHT22;11207;59.512;18.050;2022-08-11T12:00:32;28.50;87.50
22081;DHT22;11207;59.512;18.050;2022-08-11T12:03:17;29.00;89.10
22081;DHT22;11207;59.512;18.050;2022-08-11T12:05:44;28.90;85.60
22081;DHT22;11207;59.512;18.050;2022-08-11T12:08:12;28.90;82.20
22081;DHT22;11207;59.512;18.050;2022-08-11T12:10:46;28.80;84.20
22081;DHT22;11207;59.512;18.050;2022-08-11T12:13:15;29.00;87.50
22081;DHT22;11207;59.512;18.050;2022-08-11T12:16:01;29.20;85.90
22081;DHT22;11207;59.512;18.050;2022-08-11T12:18:35;29.10;81.40
22081;DHT22;11207;59.512;18.050;2022-08-11T12:21:06;28.80;81.30
22081;DHT22;11207;59.512;18.050;2022-08-11T12:23:34;28.80;81.50
22081;DHT22;11207;59.512;18.050;2022-08-11T12:26:19;28.90;81.90
22081;DHT22;11207;59.512;18.050;2022-08-11T12:29:24;28.90;87.10
22081;DHT22;11207;59.512;18.050;2022-08-11T12:31:52;29.00;80.50
22081;DHT22;11207;59.512;18.050;2022-08-11T12:34:19;29.00;81.20
22081;DHT22;11207;59.512;18.050;2022-08-11T12:39:20;29.00;87.90
22081;DHT22;11207;59.512;18.050;2022-08-11T12:42:09;28.90;82.00
22081;DHT22;11207;59.512;18.050;2022-08-11T12:44:59;28.50;79.30
22081;DHT22;11207;59.512;18.050;2022-08-11T12:47:49;28.60;83.60
22081;DHT22;11207;59.512;18.050;2022-08-11T12:50:35;28.60;81.30
22081;DHT22;11207;59.512;18.050;2022-08-11T12:53:22;28.30;82.70
22081;DHT22;11207;59.512;18.050;2022-08-11T12:55:50;28.20;83.20
22081;DHT22;11207;59.512;18.050;2022-08-11T12:58:39;28.00;83.60
22081;DHT22;11207;59.512;18.050;2022-08-11T13:01:05;28.00;88.50
22081;DHT22;11207;59.512;18.050;2022-08-11T13:03:49;28.10;89.40
22081;DHT22;11207;59.512;18.050;2022-08-11T13:06:33;28.20;88.00
22081;DHT22;11207;59.512;18.050;2022-08-11T13:09:02;28.00;83.80
22081;DHT22;11207;59.512;18.050;2022-08-11T13:11:29;28.00;83.40
22081;DHT22;11207;59.512;18.050;2022-08-11T13:14:15;28.00;84.30
22081;DHT22;11207;59.512;18.050;2022-08-11T13:16:42;28.00;84.10
22081;DHT22;11207;59.512;18.050;2022-08-11T13:19:27;28.30;85.30
22081;DHT22;11207;59.512;18.050;2022-08-11T13:21:54;28.50;83.30
22081;DHT22;11207;59.512;18.050;2022-08-11T13:24:22;28.50;84.90
22081;DHT22;11207;59.512;18.050;2022-08-11T13:26:49;28.30;82.40
22081;DHT22;11207;59.512;18.050;2022-08-11T13:29:20;28.30;84.80
22081;DHT22;11207;59.512;18.050;2022-08-11T13:31:47;28.30;82.40
22081;DHT22;11207;59.512;18.050;2022-08-11T13:34:15;28.10;82.80
22081;DHT22;11207;59.512;18.050;2022-08-11T13:36:41;27.90;80.30
22081;DHT22;11207;59.512;18.050;2022-08-11T13:39:07;27.70;82.90
22081;DHT22;11207;59.512;18.050;2022-08-11T13:41:34;27.80;81.60
22081;DHT22;11207;59.512;18.050;2022-08-11T13:44:12;27.80;83.60
22081;DHT22;11207;59.512;18.050;2022-08-11T13:46:39;27.80;82.80
22081;DHT22;11207;59.512;18.050;2022-08-11T13:49:08;27.70;81.90
22081;DHT22;11207;59.512;18.050;2022-08-11T13:51:36;27.70;81.00
22081;DHT22;11207;59.512;18.050;2022-08-11T13:57:08;27.60;82.00
22081;DHT22;11207;59.512;18.050;2022-08-11T13:59:36;27.50;81.20
22081;DHT22;11207;59.512;18.050;2022-08-11T14:02:06;27.50;83.10
22081;DHT22;11207;59.512;18.050;2022-08-11T14:07:20;27.50;83.90
22081;DHT22;11207;59.512;18.050;2022-08-11T14:09:48;27.50;80.40
22081;DHT22;11207;59.512;18.050;2022-08-11T14:12:24;27.50;80.10
22081;DHT22;11207;59.512;18.050;2022-08-11T14:15:19;27.50;81.00
22081;DHT22;11207;59.512;18.050;2022-08-11T14:17:50;27.40;80.70
22081;DHT22;11207;59.512;18.050;2022-08-11T14:20:18;27.10;79.30
22081;DHT22;11207;59.512;18.050;2022-08-11T14:22:48;27.00;79.30
22081;DHT22;11207;59.512;18.050;2022-08-11T14:25:16;26.90;80.60
22081;DHT22;11207;59.512;18.050;2022-08-11T14:27:45;27.00;79.60
22081;DHT22;11207;59.512;18.050;2022-08-11T14:30:14;27.00;77.50
22081;DHT22;11207;59.512;18.050;2022-08-11T14:33:00;27.10;79.50
22081;DHT22;11207;59.512;18.050;2022-08-11T14:35:27;27.10;77.90
22081;DHT22;11207;59.512;18.050;2022-08-11T14:37:54;27.10;79.70
22081;DHT22;11207;59.512;18.050;2022-08-11T14:40:22;27.10;76.70
22081;DHT22;11207;59.512;18.050;2022-08-11T14:43:07;27.00;76.80
22081;DHT22;11207;59.512;18.050;2022-08-11T14:45:51;26.90;78.50
22081;DHT22;11207;59.512;18.050;2022-08-11T14:48:40;26.90;75.10
22081;DHT22;11207;59.512;18.050;2022-08-11T14:51:06;26.80;71.30
22081;DHT22;11207;59.512;18.050;2022-08-11T14:53:32;26.80;72.30
22081;DHT22;11207;59.512;18.050;2022-08-11T14:55:59;26.80;74.10
22081;DHT22;11207;59.512;18.050;2022-08-11T14:58:44;26.80;72.10
22081;DHT22;11207;59.512;18.050;2022-08-11T15:01:10;26.70;71.30
22081;DHT22;11207;59.512;18.050;2022-08-11T15:03:56;26.70;71.00
22081;DHT22;11207;59.512;18.050;2022-08-11T15:06:24;26.70;72.40
22081;DHT22;11207;59.512;18.050;2022-08-11T15:08:50;26.70;71.40
22081;DHT22;11207;59.512;18.050;2022-08-11T15:11:22;26.70;70.50
22081;DHT22;11207;59.512;18.050;2022-08-11T15:14:09;26.70;74.90
22081;DHT22;11207;59.512;18.050;2022-08-11T15:16:44;26.80;72.90
22081;DHT22;11207;59.512;18.050;2022-08-11T15:19:30;26.70;74.00
22081;DHT22;11207;59.512;18.050;2022-08-11T15:22:00;26.70;72.90
22081;DHT22;11207;59.512;18.050;2022-08-11T15:24:44;26.70;72.30
22081;DHT22;11207;59.512;18.050;2022-08-11T15:27:12;26.70;72.00
22081;DHT22;11207;59.512;18.050;2022-08-11T15:29:59;26.60;73.90
22081;DHT22;11207;59.512;18.050;2022-08-11T15:32:44;26.60;74.10
22081;DHT22;11207;59.512;18.050;2022-08-11T15:35:30;26.50;73.70
22081;DHT22;11207;59.512;18.050;2022-08-11T15:38:15;26.60;72.50
22081;DHT22;11207;59.512;18.050;2022-08-11T15:40:42;26.50;74.10
22081;DHT22;11207;59.512;18.050;2022-08-11T15:43:47;26.40;75.20
22081;DHT22;11207;59.512;18.050;2022-08-11T15:46:37;26.40;74.60
22081;DHT22;11207;59.512;18.050;2022-08-11T15:49:11;26.40;74.10
22081;DHT22;11207;59.512;18.050;2022-08-11T15:51:42;26.40;75.30
22081;DHT22;11207;59.512;18.050;2022-08-11T15:54:16;26.30;75.30
22081;DHT22;11207;59.512;18.050;2022-08-11T15:56:45;26.30;75.50
22081;DHT22;11207;59.512;18.050;2022-08-11T15:59:14;26.30;76.20
22081;DHT22;11207;59.512;18.050;2022-08-11T16:02:00;26.20;75.20
22081;DHT22;11207;59.512;18.050;2022-08-11T16:04:37;26.10;75.50
22081;DHT22;11207;59.512;18.050;2022-08-11T16:07:09;26.00;76.10
22081;DHT22;11207;59.512;18.050;2022-08-11T16:10:11;26.10;76.60
22081;DHT22;11207;59.512;18.050;2022-08-11T16:12:42;26.10;76.60
22081;DHT22;11207;59.512;18.050;2022-08-11T16:15:44;26.10;76.10
22081;DHT22;11207;59.512;18.050;2022-08-11T16:18:33;26.00;77.50
22081;DHT22;11207;59.512;18.050;2022-08-11T16:21:12;25.90;78.40
22081;DHT22;11207;59.512;18.050;2022-08-11T16:23:39;25.90;79.00
22081;DHT22;11207;59.512;18.050;2022-08-11T16:26:07;25.80;77.90
22081;DHT22;11207;59.512;18.050;2022-08-11T16:28:33;25.80;78.70
22081;DHT22;11207;59.512;18.050;2022-08-11T16:31:00;25.80;79.40
22081;DHT22;11207;59.512;18.050;2022-08-11T16:33:26;25.70;79.40
22081;DHT22;11207;59.512;18.050;2022-08-11T16:35:54;25.70;79.00
22081;DHT22;11207;59.512;18.050;2022-08-11T16:38:39;25.70;78.70
22081;DHT22;11207;59.512;18.050;2022-08-11T16:41:11;25.60;79.80
22081;DHT22;11207;59.512;18.050;2022-08-11T16:43:44;25.60;79.50
22081;DHT22;11207;59.512;18.050;2022-08-11T16:46:29;25.60;79.80
22081;DHT22;11207;59.512;18.050;2022-08-11T16:49:20;25.60;82.30
22081;DHT22;11207;59.512;18.050;2022-08-11T16:51:50;25.50;81.80
22081;DHT22;11207;59.512;18.050;2022-08-11T16:54:15;25.50;82.40
22081;DHT22;11207;59.512;18.050;2022-08-11T16:56:48;25.50;82.50
22081;DHT22;11207;59.512;18.050;2022-08-11T16:59:26;25.50;84.00
22081;DHT22;11207;59.512;18.050;2022-08-11T17:01:58;25.40;85.10
22081;DHT22;11207;59.512;18.050;2022-08-11T17:07:19;25.40;83.60
22081;DHT22;11207;59.512;18.050;2022-08-11T17:10:06;25.30;83.60
22081;DHT22;11207;59.512;18.050;2022-08-11T17:12:53;25.30;84.40
22081;DHT22;11207;59.512;18.050;2022-08-11T17:15:46;25.20;84.10
22081;DHT22;11207;59.512;18.050;2022-08-11T17:18:43;25.10;85.50
22081;DHT22;11207;59.512;18.050;2022-08-11T17:21:20;25.10;85.00
22081;DHT22;11207;59.512;18.050;2022-08-11T17:23:50;25.00;87.30
22081;DHT22;11207;59.512;18.050;2022-08-11T17:26:28;24.90;87.60
22081;DHT22;11207;59.512;18.050;2022-08-11T17:29:18;24.90;86.80
22081;DHT22;11207;59.512;18.050;2022-08-11T17:31:46;24.80;85.80
22081;DHT22;11207;59.512;18.050;2022-08-11T17:34:32;24.80;87.30
22081;DHT22;11207;59.512;18.050;2022-08-11T17:37:17;24.70;87.40
22081;DHT22;11207;59.512;18.050;2022-08-11T17:39:45;24.60;88.20
22081;DHT22;11207;59.512;18.050;2022-08-11T17:42:12;24.50;88.80
22081;DHT22;11207;59.512;18.050;2022-08-11T17:44:58;24.40;89.60
22081;DHT22;11207;59.512;18.050;2022-08-11T17:47:44;24.40;88.80
22081;DHT22;11207;59.512;18.050;2022-08-11T17:50:29;24.40;86.20
22081;DHT22;11207;59.512;18.050;2022-08-11T17:52:55;24.20;87.50
22081;DHT22;11207;59.512;18.050;2022-08-11T17:55:41;24.20;87.70
22081;DHT22;11207;59.512;18.050;2022-08-11T17:58:25;24.10;87.60
22081;DHT22;11207;59.512;18.050;2022-08-11T18:01:10;24.00;87.70
22081;DHT22;11207;59.512;18.050;2022-08-11T18:03:38;24.00;88.10
22081;DHT22;11207;59.512;18.050;2022-08-11T18:06:07;23.90;88.60
22081;DHT22;11207;59.512;18.050;2022-08-11T18:08:37;23.80;88.60
22081;DHT22;11207;59.512;18.050;2022-08-11T18:11:23;23.80;88.30
22081;DHT22;11207;59.512;18.050;2022-08-11T18:14:10;23.70;89.70
22081;DHT22;11207;59.512;18.050;2022-08-11T18:16:59;23.50;90.00
22081;DHT22;11207;59.512;18.050;2022-08-11T18:19:46;23.50;88.80
22081;DHT22;11207;59.512;18.050;2022-08-11T18:22:35;23.40;89.00
22081;DHT22;11207;59.512;18.050;2022-08-11T18:25:23;23.40;90.00
22081;DHT22;11207;59.512;18.050;2022-08-11T18:28:11;23.20;90.20
22081;DHT22;11207;59.512;18.050;2022-08-11T18:30:59;23.10;90.80
22081;DHT22;11207;59.512;18.050;2022-08-11T18:33:54;23.00;91.00
22081;DHT22;11207;59.512;18.050;2022-08-11T18:36:55;22.90;91.10
22081;DHT22;11207;59.512;18.050;2022-08-11T18:39:44;22.80;91.70
22081;DHT22;11207;59.512;18.050;2022-08-11T18:42:31;22.70;91.90
22081;DHT22;11207;59.512;18.050;2022-08-11T18:45:17;22.70;91.60
22081;DHT22;11207;59.512;18.050;2022-08-11T18:48:07;22.60;92.00
22081;DHT22;11207;59.512;18.050;2022-08-11T18:50:54;22.60;92.40
22081;DHT22;11207;59.512;18.050;2022-08-11T18:53:42;22.50;92.60
22081;DHT22;11207;59.512;18.050;2022-08-11T18:56:29;22.30;92.90
22081;DHT22;11207;59.512;18.050;2022-08-11T18:59:17;22.30;93.60
22081;DHT22;11207;59.512;18.050;2022-08-11T19:02:03;22.20;93.80
22081;DHT22;11207;59.512;18.050;2022-08-11T19:04:47;22.10;94.40
22081;DHT22;11207;59.512;18.050;2022-08-11T19:07:33;22.00;94.50
22081;DHT22;11207;59.512;18.050;2022-08-11T19:10:18;21.90;94.80
22081;DHT22;11207;59.512;18.050;2022-08-11T19:13:05;21.90;94.90
22081;DHT22;11207;59.512;18.050;2022-08-11T19:15:53;21.80;95.10
22081;DHT22;11207;59.512;18.050;2022-08-11T19:18:39;21.80;95.20
22081;DHT22;11207;59.512;18.050;2022-08-11T19:21:25;21.70;95.90
22081;DHT22;11207;59.512;18.050;2022-08-11T19:24:11;21.60;95.80
22081;DHT22;11207;59.512;18.050;2022-08-11T19:27:00;21.70;95.50
22081;DHT22;11207;59.512;18.050;2022-08-11T19:29:46;21.70;96.10
22081;DHT22;11207;59.512;18.050;2022-08-11T19:32:31;21.60;96.50
22081;DHT22;11207;59.512;18.050;2022-08-11T19:35:16;21.50;96.50
22081;DHT22;11207;59.512;18.050;2022-08-11T19:38:02;21.50;96.70
22081;DHT22;11207;59.512;18.050;2022-08-11T19:41:04;21.40;97.10
22081;DHT22;11207;59.512;18.050;2022-08-11T19:43:49;21.40;97.00
22081;DHT22;11207;59.512;18.050;2022-08-11T19:46:35;21.40;96.90
22081;DHT22;11207;59.512;18.050;2022-08-11T19:49:21;21.40;97.30
22081;DHT22;11207;59.512;18.050;2022-08-11T19:52:06;21.30;97.40
22081;DHT22;11207;59.512;18.050;2022-08-11T19:54:51;21.30;98.00